Time;durP1;ratioP1;P1;durP2;ratioP2;P2;SDS_P1;SDS_P2;PMS_P1;PMS_P2;Temp;Humidity;BMP_temperature;BMP_pressure;BME280_temperature;BME280_humidity;BME280_pressure;Samples;Min_cycle;Max_cycle;Signal;HPM_P1;HPM_P2
2021/05/29 00:00:14;;;;;;;56.88;18.67;;;;;;;11.21;67.19;98785.59;4947401;28;20039;-73
2021/05/29 00:02:40;;;;;;;37.00;12.85;;;;;;;11.15;68.54;98791.13;4950557;28;20034;-73
2021/05/29 00:05:09;;;;;;;40.72;14.75;;;;;;;11.15;67.99;98793.06;4951947;28;20090;-74
2021/05/29 00:07:34;;;;;;;32.45;14.05;;;;;;;11.10;67.88;98791.19;4949664;28;20172;-74
2021/05/29 00:10:00;;;;;;;30.85;14.18;;;;;;;11.08;67.57;98787.91;4951567;28;20109;-75
2021/05/29 00:12:27;;;;;;;32.78;14.27;;;;;;;11.08;68.13;98779.69;4946494;28;20485;-74
2021/05/29 00:14:53;;;;;;;32.05;13.88;;;;;;;11.04;68.19;98784.13;4945329;28;20031;-74
2021/05/29 00:17:19;;;;;;;23.40;11.88;;;;;;;11.01;68.64;98785.53;4947634;28;20059;-73
2021/05/29 00:19:45;;;;;;;25.27;13.25;;;;;;;11.05;68.34;98790.44;4963837;28;20137;-74
2021/05/29 00:22:10;;;;;;;29.15;12.23;;;;;;;11.05;68.80;98790.44;4945820;28;20493;-71
2021/05/29 00:24:36;;;;;;;28.27;12.98;;;;;;;11.01;68.95;98792.94;4943175;28;20058;-71
2021/05/29 00:27:02;;;;;;;32.50;14.68;;;;;;;10.98;68.34;98788.84;4941870;28;20089;-72
2021/05/29 00:29:27;;;;;;;23.75;12.38;;;;;;;10.98;68.58;98794.34;4947186;28;20042;-72
2021/05/29 00:31:52;;;;;;;32.05;13.63;;;;;;;10.91;68.96;98793.88;4945402;28;20032;-72
2021/05/29 00:34:18;;;;;;;39.40;15.70;;;;;;;10.87;68.48;98790.06;4947535;28;20090;-73
2021/05/29 00:36:43;;;;;;;37.50;16.83;;;;;;;10.80;69.00;98784.13;4943095;28;20031;-73
2021/05/29 00:39:09;;;;;;;44.63;15.77;;;;;;;10.79;69.25;98793.47;4948914;28;20059;-72
2021/05/29 00:41:34;;;;;;;40.63;17.27;;;;;;;10.77;69.52;98793.72;4943749;28;20031;-73
2021/05/29 00:44:00;;;;;;;32.03;15.82;;;;;;;10.77;69.29;98793.72;4943105;28;20028;-73
2021/05/29 00:46:25;;;;;;;29.23;14.48;;;;;;;10.80;69.38;98792.34;4943339;28;20038;-73
2021/05/29 00:48:51;;;;;;;30.90;14.88;;;;;;;10.82;69.11;98787.38;4944495;28;20034;-73
2021/05/29 00:51:17;;;;;;;30.52;15.18;;;;;;;10.86;69.61;98791.16;4959194;28;20470;-73
2021/05/29 00:53:45;;;;;;;28.10;14.25;;;;;;;10.91;69.56;98784.84;4941650;28;20031;-73
2021/05/29 00:56:10;;;;;;;28.15;12.95;;;;;;;10.93;69.80;98788.91;4943328;28;20037;-74
2021/05/29 00:58:35;;;;;;;38.03;16.35;;;;;;;10.93;69.34;98788.91;4941851;28;20031;-73
2021/05/29 01:01:01;;;;;;;37.67;15.38;;;;;;;10.90;69.19;98786.75;4946105;28;20089;-73
2021/05/29 01:03:28;;;;;;;46.03;17.98;;;;;;;10.87;68.65;98790.91;4949510;28;20034;-74
2021/05/29 01:05:53;;;;;;;39.13;17.33;;;;;;;10.86;68.98;98785.69;4944796;28;20035;-74
2021/05/29 01:08:23;;;;;;;41.72;17.83;;;;;;;10.90;69.00;98784.00;4947360;28;20059;-74
2021/05/29 01:10:48;;;;;;;43.33;17.45;;;;;;;10.92;69.23;98783.72;4950866;28;20038;-74
2021/05/29 01:13:13;;;;;;;34.83;15.75;;;;;;;10.93;69.43;98777.13;4952158;28;20039;-74
2021/05/29 01:15:44;;;;;;;33.28;15.32;;;;;;;10.94;69.29;98790.53;4951878;28;20062;-74
2021/05/29 01:18:13;;;;;;;53.53;22.88;;;;;;;10.95;69.26;98794.91;4951675;28;20027;-74
2021/05/29 01:20:39;;;;;;;43.83;20.20;;;;;;;10.93;69.71;98788.91;4954958;28;20412;-74
2021/05/29 01:23:05;;;;;;;41.20;18.33;;;;;;;10.98;69.01;98788.84;4952134;28;20489;-74
2021/05/29 01:25:35;;;;;;;49.92;18.63;;;;;;;10.98;69.02;98791.59;4950215;28;20035;-73
2021/05/29 01:28:10;;;;;;;44.78;18.08;;;;;;;11.00;68.97;98792.13;4949556;28;20046;-74
2021/05/29 01:30:44;;;;;;;41.50;18.00;;;;;;;10.96;69.52;98780.09;4948938;28;20027;-73
2021/05/29 01:33:15;;;;;;;41.83;16.70;;;;;;;10.96;69.64;98790.28;4946695;28;20035;-73
2021/05/29 01:35:42;;;;;;;32.13;15.48;;;;;;;10.94;69.14;98784.25;4947335;28;20043;-73
2021/05/29 01:38:08;;;;;;;39.25;17.73;;;;;;;10.92;69.51;98786.47;4950871;28;20058;-74
2021/05/29 01:40:34;;;;;;;46.00;18.38;;;;;;;10.93;68.50;98777.13;4949607;28;20402;-74
2021/05/29 01:43:00;;;;;;;41.38;17.63;;;;;;;10.92;69.41;98776.28;4943686;28;20027;-73
2021/05/29 01:45:28;;;;;;;45.65;18.50;;;;;;;10.90;69.69;98781.25;4960080;28;20456;-74
2021/05/29 01:47:53;;;;;;;44.38;17.73;;;;;;;10.91;69.75;98771.91;4943130;28;20024;-74
2021/05/29 01:50:19;;;;;;;42.85;18.05;;;;;;;10.89;69.81;98776.88;4944044;28;20038;-74
2021/05/29 01:52:46;;;;;;;37.85;17.15;;;;;;;10.89;69.30;98776.06;4943703;28;20031;-74
2021/05/29 01:55:11;;;;;;;31.92;15.88;;;;;;;10.87;70.04;98779.09;4944041;28;20534;-73
2021/05/29 01:57:37;;;;;;;33.42;15.45;;;;;;;10.81;69.90;98778.34;4945707;28;20119;-73
2021/05/29 02:00:04;;;;;;;41.65;20.40;;;;;;;10.78;69.82;98765.19;4944110;28;20106;-72
2021/05/29 02:02:29;;;;;;;39.47;19.23;;;;;;;10.80;69.99;98767.66;4945610;28;20441;-73
2021/05/29 02:04:54;;;;;;;40.45;17.75;;;;;;;10.82;69.13;98771.75;4945083;28;20090;-73
2021/05/29 02:07:23;;;;;;;40.60;18.25;;;;;;;10.86;69.65;98771.97;4947519;28;20027;-73
2021/05/29 02:09:48;;;;;;;38.53;17.63;;;;;;;10.89;70.45;98771.38;4942364;28;20040;-72
2021/05/29 02:12:14;;;;;;;36.15;18.42;;;;;;;10.90;70.02;98770.28;4948759;28;20118;-74
2021/05/29 02:14:39;;;;;;;35.47;18.05;;;;;;;10.93;69.76;98771.63;4939986;28;20031;-73
2021/05/29 02:17:04;;;;;;;36.28;17.77;;;;;;;10.96;70.15;98769.13;4938630;28;20035;-73
2021/05/29 02:19:30;;;;;;;36.75;17.60;;;;;;;11.00;69.87;98766.63;4938302;28;20027;-73
2021/05/29 02:21:55;;;;;;;34.15;15.73;;;;;;;11.05;70.03;98757.50;4939503;28;20043;-73
2021/05/29 02:24:20;;;;;;;38.90;17.77;;;;;;;11.07;69.38;98771.75;4943405;28;20027;-72
2021/05/29 02:26:46;;;;;;;35.58;15.52;;;;;;;11.12;69.51;98768.94;4941569;28;20053;-72
2021/05/29 02:29:11;;;;;;;37.65;17.75;;;;;;;11.10;69.66;98771.16;4953528;28;20119;-73
2021/05/29 02:31:37;;;;;;;37.13;18.40;;;;;;;11.08;69.68;98762.41;4943722;28;20392;-72
2021/05/29 02:34:02;;;;;;;34.67;17.88;;;;;;;11.06;69.79;98770.13;4942456;28;20031;-72
2021/05/29 02:36:28;;;;;;;32.25;16.42;;;;;;;11.03;69.41;98777.00;4941364;28;20453;-73
2021/05/29 02:38:53;;;;;;;37.03;18.25;;;;;;;10.99;69.43;98776.78;4942355;28;20545;-73
2021/05/29 02:41:18;;;;;;;30.58;15.13;;;;;;;10.96;70.30;98771.88;4939883;28;20460;-73
2021/05/29 02:43:44;;;;;;;29.77;15.38;;;;;;;10.96;69.90;98782.03;4942412;28;20050;-72
2021/05/29 02:46:10;;;;;;;27.13;12.80;;;;;;;10.92;70.54;98783.72;4941258;28;20034;-73
2021/05/29 02:48:37;;;;;;;31.42;14.85;;;;;;;10.88;70.42;98780.72;4945004;28;20078;-72
2021/05/29 02:51:03;;;;;;;26.35;12.80;;;;;;;10.86;70.74;98788.41;4945163;28;20036;-73
2021/05/29 02:53:28;;;;;;;31.55;16.15;;;;;;;10.81;70.40;98793.97;4940933;28;20089;-73
2021/05/29 02:55:54;;;;;;;30.67;15.43;;;;;;;10.77;70.42;98790.19;4949018;28;20593;-73
2021/05/29 02:58:19;;;;;;;30.58;15.32;;;;;;;10.78;70.47;98794.56;4949014;28;20035;-73
2021/05/29 03:00:47;;;;;;;32.97;16.35;;;;;;;10.76;70.03;98791.28;4944139;28;20037;-72
2021/05/29 03:03:13;;;;;;;29.45;15.10;;;;;;;10.74;70.58;98797.06;4941843;28;20023;-73
2021/05/29 03:05:41;;;;;;;31.02;15.07;;;;;;;10.68;71.22;98796.28;4945105;28;20039;-72
2021/05/29 03:08:09;;;;;;;29.77;16.27;;;;;;;10.67;70.46;98799.31;4944702;28;20143;-73
2021/05/29 03:10:34;;;;;;;29.58;15.93;;;;;;;10.66;70.81;98798.50;4946976;28;20071;-72
2021/05/29 03:13:00;;;;;;;31.95;17.00;;;;;;;10.70;71.11;98798.72;4945373;28;20055;-72
2021/05/29 03:15:26;;;;;;;30.45;15.68;;;;;;;10.68;70.61;98803.69;4945030;28;20540;-73
2021/05/29 03:17:55;;;;;;;26.35;14.65;;;;;;;10.67;70.96;98804.78;4940275;28;20035;-72
2021/05/29 03:20:23;;;;;;;31.05;16.52;;;;;;;10.69;70.74;98799.84;4947262;28;20142;-73
2021/05/29 03:22:49;;;;;;;32.65;16.50;;;;;;;10.71;71.06;98817.66;4940480;28;20038;-73
2021/05/29 03:25:16;;;;;;;30.13;15.60;;;;;;;10.70;70.45;98806.97;4948606;28;20027;-72
2021/05/29 03:27:42;;;;;;;27.58;14.20;;;;;;;10.67;71.09;98813.03;4944097;28;20026;-73
2021/05/29 03:30:10;;;;;;;34.67;16.05;;;;;;;10.63;71.48;98814.69;4947351;28;20036;-73
2021/05/29 03:32:37;;;;;;;29.95;16.02;;;;;;;10.62;71.53;98810.31;4941883;28;20033;-72
2021/05/29 03:35:04;;;;;;;26.20;13.20;;;;;;;10.63;71.74;98820.19;4947897;28;20062;-73
2021/05/29 03:37:29;;;;;;;26.95;13.88;;;;;;;10.59;71.61;98811.72;4951781;28;20102;-73
2021/05/29 03:39:55;;;;;;;28.33;15.65;;;;;;;10.57;71.43;98816.69;4942845;28;20035;-73
2021/05/29 03:42:20;;;;;;;22.30;12.68;;;;;;;10.59;71.82;98819.97;4939091;28;20032;-73
2021/05/29 03:44:46;;;;;;;25.52;14.73;;;;;;;10.59;71.62;98813.66;4938649;28;20032;-73
2021/05/29 03:47:11;;;;;;;26.67;14.40;;;;;;;10.63;71.66;98811.97;4936428;28;20032;-73
2021/05/29 03:49:36;;;;;;;22.08;12.02;;;;;;;10.64;71.78;98814.44;4935761;28;20101;-73
2021/05/29 03:52:02;;;;;;;24.63;12.95;;;;;;;10.63;71.13;98818.28;4938479;28;20123;-73
2021/05/29 03:54:28;;;;;;;24.75;12.52;;;;;;;10.64;71.12;98819.09;4940516;28;20031;-73
2021/05/29 03:56:53;;;;;;;23.80;13.45;;;;;;;10.65;70.90;98815.22;4940896;28;20372;-73
2021/05/29 03:59:20;;;;;;;37.75;15.18;;;;;;;10.70;72.06;98818.78;4943152;28;20094;-73
2021/05/29 04:01:46;;;;;;;28.95;14.20;;;;;;;10.75;70.90;98811.59;4937258;28;20039;-73
2021/05/29 04:04:11;;;;;;;31.90;14.07;;;;;;;10.79;71.36;98810.72;4960093;28;20176;-73
2021/05/29 04:06:37;;;;;;;25.65;13.00;;;;;;;10.79;71.20;98818.94;4940910;28;20317;-73
2021/05/29 04:09:05;;;;;;;23.02;13.02;;;;;;;10.84;70.84;98815.34;4944326;28;20521;-73
2021/05/29 04:11:31;;;;;;;20.17;12.27;;;;;;;10.87;70.85;98823.81;4939786;28;20064;-73
2021/05/29 04:13:57;;;;;;;24.52;12.00;;;;;;;10.90;70.75;98824.34;4944592;28;20135;-73
2021/05/29 04:16:22;;;;;;;23.38;12.23;;;;;;;10.94;70.86;98825.41;4946186;28;20035;-73
2021/05/29 04:18:48;;;;;;;22.02;11.55;;;;;;;10.93;70.45;98832.81;4939905;28;20409;-72
2021/05/29 04:21:13;;;;;;;18.30;9.82;;;;;;;10.96;70.42;98829.50;4941586;28;20111;-72
2021/05/29 04:23:39;;;;;;;16.77;9.45;;;;;;;10.98;70.51;98835.50;4944991;28;20027;-72
2021/05/29 04:26:07;;;;;;;19.45;10.48;;;;;;;11.03;70.17;98831.88;4949695;28;20082;-73
2021/05/29 04:28:37;;;;;;;18.35;12.07;;;;;;;11.03;70.50;98831.88;4942866;28;20412;-72
2021/05/29 04:31:03;;;;;;;18.48;10.68;;;;;;;11.06;70.05;98834.06;4945396;28;20165;-72
2021/05/29 04:33:28;;;;;;;19.77;10.45;;;;;;;11.07;69.72;98832.94;4951200;28;20118;-73
2021/05/29 04:35:54;;;;;;;22.67;11.30;;;;;;;11.06;70.02;98836.00;4944167;28;20046;-72
2021/05/29 04:38:19;;;;;;;20.13;9.88;;;;;;;11.08;69.78;98839.28;4946704;28;20048;-73
2021/05/29 04:40:44;;;;;;;19.85;9.27;;;;;;;11.02;70.13;98830.25;4940656;28;20066;-72
2021/05/29 04:43:10;;;;;;;18.13;9.05;;;;;;;11.04;70.24;98833.53;4946631;28;20036;-72
2021/05/29 04:45:36;;;;;;;22.23;9.73;;;;;;;11.07;69.84;98832.13;4942209;28;20030;-72
2021/05/29 04:48:01;;;;;;;17.23;9.00;;;;;;;11.10;69.91;98834.31;4945032;28;20082;-72
2021/05/29 04:50:27;;;;;;;19.02;9.05;;;;;;;11.13;70.04;98837.28;4948079;28;20122;-73
2021/05/29 04:52:52;;;;;;;17.13;8.77;;;;;;;11.14;70.27;98835.38;4945961;28;20028;-72
2021/05/29 04:55:18;;;;;;;19.88;9.57;;;;;;;11.16;69.31;98836.69;4950254;28;20036;-73
2021/05/29 04:57:44;;;;;;;15.25;7.82;;;;;;;11.14;69.59;98844.41;4944360;28;20042;-73
2021/05/29 05:00:13;;;;;;;16.80;9.15;;;;;;;11.12;70.09;98846.63;4948352;28;20039;-72
2021/05/29 05:02:38;;;;;;;17.60;9.50;;;;;;;11.09;69.76;98846.41;4950799;28;20038;-73
2021/05/29 05:05:06;;;;;;;18.88;10.45;;;;;;;11.09;70.54;98847.19;4953186;28;20279;-72
2021/05/29 05:07:31;;;;;;;17.98;9.38;;;;;;;11.12;69.92;98851.31;4948474;28;20063;-71
2021/05/29 05:09:56;;;;;;;17.85;9.75;;;;;;;11.13;70.23;98847.44;4950416;28;20031;-71
2021/05/29 05:12:22;;;;;;;15.55;8.93;;;;;;;11.16;69.73;98847.69;4945374;28;20722;-71
2021/05/29 05:14:48;;;;;;;13.60;8.25;;;;;;;11.17;69.68;98851.25;4950563;28;20474;-71
2021/05/29 05:17:14;;;;;;;14.23;8.02;;;;;;;11.19;69.97;98851.78;4950372;28;20032;-71
2021/05/29 05:19:39;;;;;;;12.07;7.90;;;;;;;11.16;70.08;98852.38;4951918;28;20514;-72
2021/05/29 05:22:05;;;;;;;18.92;9.20;;;;;;;11.16;69.72;98853.16;4942613;28;20479;-72
2021/05/29 05:24:30;;;;;;;17.83;9.27;;;;;;;11.20;69.38;98853.44;4957433;28;20038;-72
2021/05/29 05:26:56;;;;;;;21.17;10.57;;;;;;;11.22;69.49;98856.66;4946008;28;20110;-72
2021/05/29 05:29:22;;;;;;;18.67;10.65;;;;;;;11.24;69.66;98859.94;4968207;28;20038;-72
2021/05/29 05:31:47;;;;;;;32.53;15.55;;;;;;;11.30;69.52;98863.47;4946898;28;20031;-71
2021/05/29 05:34:13;;;;;;;41.42;15.25;;;;;;;11.36;69.70;98864.22;4953118;28;20066;-71
2021/05/29 05:36:41;;;;;;;31.77;13.77;;;;;;;11.36;69.84;98856.81;4948688;28;20034;-71
2021/05/29 05:39:10;;;;;;;30.02;14.45;;;;;;;11.41;69.07;98861.44;4947826;28;20059;-71
2021/05/29 05:41:36;;;;;;;27.92;13.63;;;;;;;11.39;69.22;98856.25;4943556;28;20162;-71
2021/05/29 05:44:02;;;;;;;24.67;13.25;;;;;;;11.42;69.57;98860.31;4942831;28;20027;-71
2021/05/29 05:46:28;;;;;;;30.67;16.30;;;;;;;11.46;69.64;98853.13;4937427;28;20436;-72
2021/05/29 05:48:53;;;;;;;37.80;17.58;;;;;;;11.50;69.07;98848.69;4939401;28;20028;-71
2021/05/29 05:51:19;;;;;;;26.58;13.63;;;;;;;11.55;69.61;98847.81;4939466;28;20493;-71
2021/05/29 05:53:45;;;;;;;25.23;14.10;;;;;;;11.57;69.46;98851.06;4938128;28;20031;-71
2021/05/29 05:56:10;;;;;;;28.65;14.60;;;;;;;11.62;69.46;98851.81;4937803;28;20028;-71
2021/05/29 05:58:37;;;;;;;38.00;21.58;;;;;;;11.66;69.94;98854.81;4941481;28;20022;-71
2021/05/29 06:01:06;;;;;;;37.13;19.80;;;;;;;11.73;69.45;98847.03;4941309;28;20046;-72
2021/05/29 06:03:34;;;;;;;33.10;15.90;;;;;;;11.76;69.49;98853.88;4941921;28;20027;-72
2021/05/29 06:05:59;;;;;;;32.05;15.20;;;;;;;11.84;69.87;98852.38;4942066;28;20611;-71
2021/05/29 06:08:25;;;;;;;26.45;13.55;;;;;;;11.87;69.80;98857.28;4945442;28;20082;-71
2021/05/29 06:10:51;;;;;;;29.27;14.48;;;;;;;11.79;69.47;98847.78;4940041;28;20051;-71
2021/05/29 06:17:57;;;;;;;27.23;13.65;;;;;;;11.83;69.80;98853.50;4948817;28;20034;-71
2021/05/29 06:21:31;;;;;;;30.50;12.98;;;;;;;11.93;69.91;98863.56;4938499;28;20500;-71
2021/05/29 06:23:57;;;;;;;24.25;12.10;;;;;;;11.98;69.35;98858.78;4935957;28;20058;-72
2021/05/29 06:26:22;;;;;;;22.65;12.52;;;;;;;11.98;69.45;98860.75;4956141;28;20114;-71
2021/05/29 06:28:48;;;;;;;22.85;11.52;;;;;;;11.96;69.30;98874.75;4942557;28;20034;-72
2021/05/29 06:31:13;;;;;;;24.13;13.15;;;;;;;11.92;68.79;98865.47;4946762;28;20063;-71
2021/05/29 06:33:39;;;;;;;29.13;14.60;;;;;;;11.87;68.48;98874.59;4940899;28;20030;-71
2021/05/29 06:36:04;;;;;;;27.92;13.77;;;;;;;11.88;69.10;98867.16;4941955;28;20038;-71
2021/05/29 06:38:30;;;;;;;27.15;13.15;;;;;;;11.89;68.91;98874.31;4944460;28;20038;-71
2021/05/29 06:40:55;;;;;;;24.83;12.60;;;;;;;11.96;69.30;98871.22;4948127;28;20521;-70
2021/05/29 06:43:20;;;;;;;27.95;14.13;;;;;;;12.03;69.40;98874.41;4945475;28;20525;-71
2021/05/29 06:45:46;;;;;;;23.20;12.95;;;;;;;12.09;69.54;98866.94;4948008;28;20033;-71
2021/05/29 06:48:14;;;;;;;23.27;12.55;;;;;;;12.11;69.31;98873.75;4946355;28;21105;-71
2021/05/29 06:50:39;;;;;;;27.10;14.20;;;;;;;12.12;69.44;98878.16;4948181;28;20503;-71
2021/05/29 06:53:09;;;;;;;23.42;12.75;;;;;;;12.19;68.85;98873.09;4946628;28;20024;-71
2021/05/29 06:58:37;;;;;;;28.38;12.48;;;;;;;12.31;69.17;98863.59;4945097;28;20069;-71
2021/05/29 07:01:03;;;;;;;22.30;12.13;;;;;;;12.36;68.77;98875.34;4943660;28;20074;-72
2021/05/29 07:03:28;;;;;;;27.00;13.70;;;;;;;12.39;68.63;98871.19;4944401;28;20062;-72
2021/05/29 07:05:53;;;;;;;21.48;12.20;;;;;;;12.43;68.78;98869.44;4951029;28;20035;-70
2021/05/29 07:08:19;;;;;;;25.55;13.77;;;;;;;12.46;69.15;98868.06;4945027;28;20649;-70
2021/05/29 07:10:44;;;;;;;25.90;13.68;;;;;;;12.45;68.54;98878.22;4951414;28;20058;-70
2021/05/29 07:13:09;;;;;;;22.70;11.75;;;;;;;12.41;67.94;98873.63;4939680;28;20047;-70
2021/05/29 07:15:38;;;;;;;26.27;13.02;;;;;;;12.35;68.18;98875.66;4951639;28;20081;-70
2021/05/29 07:18:08;;;;;;;26.35;14.07;;;;;;;12.39;68.06;98867.59;4947617;28;20035;-70
2021/05/29 07:20:34;;;;;;;28.17;14.38;;;;;;;12.41;68.37;98870.88;4948414;28;20030;-70
2021/05/29 07:23:00;;;;;;;26.02;14.38;;;;;;;12.46;68.69;98874.34;4943670;28;20078;-70
2021/05/29 07:25:27;;;;;;;28.38;15.82;;;;;;;12.54;68.30;98872.88;4948367;28;20490;-71
2021/05/29 07:27:52;;;;;;;27.58;14.43;;;;;;;12.64;68.35;98861.69;4943381;28;20035;-71
2021/05/29 07:30:18;;;;;;;30.48;14.77;;;;;;;12.73;68.30;98867.34;4946775;28;20256;-68
2021/05/29 07:32:44;;;;;;;33.70;15.18;;;;;;;12.75;67.78;98865.13;4949938;28;20590;-70
2021/05/29 07:35:09;;;;;;;36.58;16.60;;;;;;;12.88;68.21;98869.03;4944744;28;20032;-71
2021/05/29 07:37:36;;;;;;;25.35;14.65;;;;;;;12.99;67.68;98861.41;4954277;28;20035;-71
2021/05/29 07:40:02;;;;;;;26.70;14.13;;;;;;;13.05;67.38;98862.94;4949990;28;20106;-72
2021/05/29 07:42:28;;;;;;;19.17;10.57;;;;;;;13.12;67.21;98867.25;4953215;28;20054;-72
2021/05/29 07:44:53;;;;;;;20.00;11.18;;;;;;;13.16;66.83;98869.06;4944193;28;20055;-71
2021/05/29 07:47:19;;;;;;;17.60;10.88;;;;;;;13.19;66.45;98862.16;4942228;28;20036;-71
2021/05/29 07:49:44;;;;;;;16.95;11.07;;;;;;;13.14;65.72;98873.28;4942383;28;20027;-71
2021/05/29 07:52:10;;;;;;;17.50;10.52;;;;;;;13.09;65.51;98874.16;4939701;28;20054;-71
2021/05/29 07:54:36;;;;;;;16.67;9.93;;;;;;;13.05;65.25;98875.88;4947605;28;20087;-71
2021/05/29 07:57:01;;;;;;;34.65;14.52;;;;;;;13.03;65.84;98878.16;4944104;28;20448;-73
2021/05/29 07:59:27;;;;;;;32.28;13.63;;;;;;;12.96;66.06;98873.00;4945452;28;20698;-71
2021/05/29 08:01:52;;;;;;;27.27;12.13;;;;;;;12.92;65.72;98867.31;4940877;28;20024;-72
2021/05/29 08:04:18;;;;;;;37.45;15.93;;;;;;;12.90;66.02;98876.97;4945891;28;20106;-72
2021/05/29 08:06:44;;;;;;;31.42;12.80;;;;;;;12.86;66.17;98865.75;4945687;28;20115;-73
2021/05/29 08:09:10;;;;;;;37.90;15.02;;;;;;;12.86;66.20;98865.75;4940965;28;20090;-72
2021/05/29 08:11:37;;;;;;;48.58;18.42;;;;;;;12.90;66.33;98864.03;4950263;28;20031;-72
2021/05/29 08:14:03;;;;;;;40.10;15.32;;;;;;;12.94;66.48;98873.31;4952304;28;20038;-71
2021/05/29 08:16:29;;;;;;;31.85;14.25;;;;;;;12.91;66.03;98865.66;4936221;29;20032;-71
2021/05/29 08:18:54;;;;;;;37.50;15.38;;;;;;;12.94;66.70;98867.00;4933384;29;20035;-72
2021/05/29 08:21:21;;;;;;;23.85;12.93;;;;;;;12.93;66.54;98859.84;4935778;29;20055;-70
2021/05/29 08:23:47;;;;;;;21.92;11.93;;;;;;;13.02;66.86;98862.75;4944644;28;20026;-72
2021/05/29 08:26:13;;;;;;;26.92;14.65;;;;;;;13.10;66.67;98860.09;4936545;28;20034;-72
2021/05/29 08:28:39;;;;;;;21.58;11.95;;;;;;;13.18;66.85;98866.03;4938374;29;20027;-72
2021/05/29 08:31:05;;;;;;;19.83;11.25;;;;;;;13.24;66.57;98856.56;4941432;28;20126;-71
2021/05/29 08:33:30;;;;;;;17.52;10.20;;;;;;;13.24;65.87;98851.06;4944170;28;20126;-71
2021/05/29 08:35:56;;;;;;;28.95;14.45;;;;;;;13.27;65.94;98850.41;4942180;28;20049;-71
2021/05/29 08:38:22;;;;;;;23.45;12.10;;;;;;;13.29;65.94;98861.16;4943700;28;20403;-72
2021/05/29 08:40:48;;;;;;;25.60;14.90;;;;;;;13.33;65.65;98851.97;4943702;29;20035;-72
2021/05/29 08:43:14;;;;;;;23.25;12.85;;;;;;;13.34;65.84;98859.09;4943640;28;20105;-72
2021/05/29 08:45:39;;;;;;;25.95;11.70;;;;;;;13.28;65.30;98854.81;4939431;28;20506;-72
2021/05/29 08:48:06;;;;;;;24.98;14.23;;;;;;;13.23;65.49;98852.19;4935242;28;20031;-72
2021/05/29 08:50:33;;;;;;;24.50;12.52;;;;;;;13.21;65.08;98848.91;4935804;29;20106;-71
2021/05/29 08:52:58;;;;;;;30.88;15.13;;;;;;;13.16;65.40;98855.31;4943199;29;20794;-71
2021/05/29 08:55:24;;;;;;;27.17;13.55;;;;;;;13.14;65.87;98852.03;4943103;29;20067;-71
2021/05/29 08:57:50;;;;;;;42.72;19.15;;;;;;;13.15;65.60;98853.66;4943663;28;20041;-70
2021/05/29 09:00:25;;;;;;;32.80;16.38;;;;;;;13.16;65.55;98852.56;4941964;29;20138;-71
2021/05/29 09:03:12;;;;;;;27.02;15.45;;;;;;;13.20;65.89;98839.00;4941053;29;20035;-70
2021/05/29 09:05:53;;;;;;;22.90;12.00;;;;;;;13.26;66.03;98835.00;4942547;29;20058;-69
2021/05/29 09:08:24;;;;;;;28.40;14.63;;;;;;;13.34;65.98;98837.06;4918336;29;20082;-69
2021/05/29 09:10:52;;;;;;;27.42;15.05;;;;;;;13.45;66.14;98832.19;4934331;29;20038;-70
2021/05/29 09:13:25;;;;;;;26.27;13.73;;;;;;;13.65;65.94;98824.66;4941260;29;20090;-70
2021/05/29 09:16:04;;;;;;;31.23;15.00;;;;;;;13.84;66.21;98825.34;4941761;29;20055;-70
2021/05/29 09:18:33;;;;;;;33.17;14.25;;;;;;;13.98;65.82;98824.47;4942898;29;20039;-69
2021/05/29 09:21:31;;;;;;;19.52;10.68;;;;;;;14.03;64.41;98821.63;4942126;29;20043;-70
2021/05/29 09:24:11;;;;;;;19.58;10.98;;;;;;;14.05;63.56;98832.34;4942242;29;20039;-71
2021/05/29 09:26:49;;;;;;;18.55;11.20;;;;;;;14.02;62.70;98836.53;4941898;29;20034;-70
2021/05/29 09:29:28;;;;;;;27.55;13.05;;;;;;;13.93;62.52;98841.97;4934350;29;20027;-71
2021/05/29 09:32:08;;;;;;;19.83;11.43;;;;;;;13.74;61.53;98864.16;4934827;28;20023;-72
2021/05/29 09:34:40;;;;;;;13.95;7.50;;;;;;;13.53;60.53;98870.06;4942042;29;20043;-71
2021/05/29 09:37:15;;;;;;;18.58;9.18;;;;;;;13.24;60.15;98884.09;4942262;29;20035;-71
2021/05/29 09:39:45;;;;;;;9.40;5.75;;;;;;;12.98;60.24;98868.03;4943378;29;20035;-71
2021/05/29 09:42:12;;;;;;;6.75;3.90;;;;;;;12.69;60.69;98874.56;4942324;29;20030;-71
2021/05/29 09:44:38;;;;;;;15.10;7.45;;;;;;;12.48;61.31;98866.63;4942375;28;21020;-72
2021/05/29 09:47:08;;;;;;;10.85;6.00;;;;;;;12.33;61.66;98862.19;4941126;29;20473;-72
2021/05/29 09:49:53;;;;;;;;;;;;;;;12.24;61.75;98863.16;4937666;29;20031;-72
2021/05/29 09:52:29;;;;;;;16.13;11.07;;;;;;;12.12;62.19;98860.84;4934920;29;19914;-71
2021/05/29 09:55:01;;;;;;;14.30;8.43;;;;;;;12.11;63.26;98854.53;4940121;29;20027;-72
2021/05/29 09:57:27;;;;;;;14.23;7.43;;;;;;;12.06;62.68;98857.34;4942011;28;20035;-72
2021/05/29 10:00:05;;;;;;;14.05;6.38;;;;;;;12.04;63.09;98856.81;4942409;29;20035;-71
2021/05/29 10:02:31;;;;;;;24.50;8.57;;;;;;;12.03;63.50;98860.69;4941853;29;20553;-72
2021/05/29 10:04:57;;;;;;;39.05;16.40;;;;;;;12.08;63.62;98863.34;4942565;28;20081;-71
2021/05/29 10:07:40;;;;;;;39.00;15.30;;;;;;;12.14;64.15;98858.63;4941572;29;20027;-73
2021/05/29 10:10:06;;;;;;;14.50;7.40;;;;;;;12.16;64.33;98861.91;4938244;29;20115;-73
2021/05/29 10:12:32;;;;;;;13.18;6.75;;;;;;;12.14;64.17;98864.13;4933102;28;20031;-73
2021/05/29 10:14:57;;;;;;;18.08;7.40;;;;;;;12.14;64.01;98864.94;4935203;29;20027;-73
2021/05/29 10:17:23;;;;;;;18.52;9.55;;;;;;;12.13;64.12;98854.25;4940487;29;20170;-73
2021/05/29 10:19:49;;;;;;;39.17;21.10;;;;;;;12.14;64.32;98858.63;4941549;28;20106;-70
2021/05/29 10:22:17;;;;;;;8.15;4.28;;;;;;;12.13;64.29;98855.03;4941090;29;20045;-70
2021/05/29 10:24:49;;;;;;;7.43;4.65;;;;;;;12.11;64.77;98846.28;4941649;29;20093;-73
2021/05/29 10:27:24;;;;;;;6.80;4.60;;;;;;;12.21;65.05;98846.13;4941367;28;20031;-71
2021/05/29 10:29:54;;;;;;;5.78;3.58;;;;;;;12.29;64.57;98836.38;4940576;28;20790;-71
2021/05/29 10:32:20;;;;;;;9.27;3.92;;;;;;;12.39;64.62;98837.34;4932674;28;20106;-71
2021/05/29 10:35:05;;;;;;;6.53;3.97;;;;;;;12.56;65.00;98836.81;4932282;28;20089;-71
2021/05/29 10:37:41;;;;;;;9.40;4.18;;;;;;;12.73;64.98;98828.81;4939532;28;20055;-70
2021/05/29 10:40:21;;;;;;;6.68;3.65;;;;;;;12.94;64.89;98831.19;4941036;29;20142;-70
2021/05/29 10:43:07;;;;;;;11.95;5.13;;;;;;;13.14;64.91;98830.00;4943269;29;20043;-69
2021/05/29 10:45:35;;;;;;;10.13;4.80;;;;;;;13.39;64.74;98836.97;4941499;29;20055;-72
2021/05/29 10:48:15;;;;;;;6.78;3.95;;;;;;;13.63;64.81;98824.97;4954828;28;20925;-70
2021/05/29 10:51:00;;;;;;;9.82;6.80;;;;;;;13.87;64.38;98825.81;4941053;29;20602;-71
2021/05/29 10:53:41;;;;;;;8.48;4.32;;;;;;;14.01;63.77;98818.34;4932498;29;20505;-70
2021/05/29 10:56:18;;;;;;;9.23;4.15;;;;;;;14.03;63.30;98815.28;4932063;29;20031;-71
2021/05/29 10:58:57;;;;;;;9.27;3.90;;;;;;;13.94;61.44;98824.31;4925528;28;20039;-71
2021/05/29 11:01:44;;;;;;;8.25;3.60;;;;;;;13.82;61.48;98822.09;4955235;28;20031;-70
2021/05/29 11:04:16;;;;;;;8.30;3.25;;;;;;;13.59;60.64;98823.94;4940563;29;20039;-71
2021/05/29 11:06:49;;;;;;;12.93;4.53;;;;;;;13.39;60.58;98819.63;4926776;29;20058;-71
2021/05/29 11:09:35;;;;;;;149.82;44.90;;;;;;;13.15;60.40;98815.13;4927280;28;20111;-71
2021/05/29 11:12:05;;;;;;;26.80;12.15;;;;;;;13.04;60.62;98806.25;4926234;29;20043;-72
2021/05/29 11:14:49;;;;;;;8.73;3.97;;;;;;;12.91;60.85;98818.03;4932270;29;20240;-73
2021/05/29 11:17:17;;;;;;;80.30;45.90;;;;;;;12.86;61.22;98804.38;4932489;29;20369;-72
2021/05/29 11:19:58;;;;;;;45.60;24.38;;;;;;;12.86;61.18;98812.63;4939101;29;20038;-72
2021/05/29 11:22:25;;;;;;;19.90;10.00;;;;;;;12.88;61.50;98822.22;4946384;29;20505;-73
2021/05/29 11:24:52;;;;;;;50.70;29.30;;;;;;;12.98;61.84;98812.97;4939366;29;20477;-73
2021/05/29 11:27:33;;;;;;;39.03;16.80;;;;;;;13.17;62.83;98818.38;4928724;29;20042;-74
2021/05/29 11:30:12;;;;;;;18.90;7.63;;;;;;;13.36;62.89;98804.50;4941898;29;20171;-73